createdAt,value
2023-03-18T00:02:12.131Z,1.40
2023-03-18T00:07:16.827Z,1.60
2023-03-18T00:12:20.519Z,1.70
2023-03-18T00:17:24.017Z,1.60
2023-03-18T00:22:28.656Z,1.73
2023-03-18T00:27:31.976Z,1.57
2023-03-18T00:32:35.351Z,1.40
2023-03-18T00:37:39.971Z,1.30
2023-03-18T00:42:47.706Z,2.70
2023-03-18T00:47:51.448Z,2.40
2023-03-18T00:52:56.536Z,2.00
2023-03-18T00:57:59.818Z,1.50
2023-03-18T01:03:04.528Z,1.47
2023-03-18T01:08:09.319Z,1.63
2023-03-18T01:13:12.654Z,1.63
2023-03-18T01:18:16.665Z,1.80
2023-03-18T01:23:21.379Z,1.30
2023-03-18T01:28:24.971Z,1.40
2023-03-18T01:33:30.058Z,1.60
2023-03-18T01:38:35.374Z,1.50
2023-03-18T01:43:40.851Z,1.40
2023-03-18T01:48:44.181Z,1.40
2023-03-18T01:53:51.207Z,1.50
2023-03-18T01:58:57.568Z,1.50
2023-03-18T02:04:01.763Z,2.00
2023-03-18T02:09:07.524Z,2.30
2023-03-18T02:14:13.674Z,1.83
2023-03-18T02:19:39.864Z,1.60
2023-03-18T02:24:50.909Z,2.30
2023-03-18T02:29:58.215Z,1.90
2023-03-18T02:35:05.039Z,1.50
2023-03-18T02:40:16.624Z,1.60
2023-03-18T02:45:31.956Z,1.30
2023-03-18T02:50:35.997Z,1.40
2023-03-18T02:55:39.340Z,1.43
2023-03-18T03:00:44.207Z,1.30
2023-03-18T03:05:47.589Z,1.27
2023-03-18T03:10:52.614Z,1.60
2023-03-18T03:15:57.688Z,1.40
2023-03-18T03:21:01.059Z,1.70
2023-03-18T03:26:05.556Z,1.40
2023-03-18T03:31:11.102Z,2.10
2023-03-18T03:36:16.563Z,1.30
2023-03-18T03:41:20.233Z,1.60
2023-03-18T03:46:25.364Z,1.30
2023-03-18T03:51:29.444Z,1.70
2023-03-18T03:56:32.795Z,1.50
2023-03-18T04:01:37.646Z,1.50
2023-03-18T04:06:41.152Z,1.43
2023-03-18T04:11:44.931Z,1.87
2023-03-18T04:16:49.634Z,1.63
2023-03-18T04:21:53.774Z,1.57
2023-03-18T04:26:57.040Z,1.40
2023-03-18T04:32:01.890Z,1.33
2023-03-18T04:37:05.406Z,1.90
2023-03-18T04:42:09.080Z,1.50
2023-03-18T04:47:13.939Z,1.40
2023-03-18T04:52:17.655Z,1.60
2023-03-18T04:57:20.943Z,1.40
2023-03-18T05:02:25.872Z,1.67
2023-03-18T05:07:29.326Z,1.70
2023-03-18T05:12:32.615Z,1.67
2023-03-18T05:17:37.348Z,1.70
2023-03-18T05:22:41.343Z,1.70
2023-03-18T05:27:44.697Z,1.90
2023-03-18T05:32:49.381Z,1.77
2023-03-18T05:37:52.699Z,1.57
2023-03-18T05:42:56.816Z,2.23
2023-03-18T05:48:01.783Z,1.90
2023-03-18T05:53:05.668Z,1.80
2023-03-18T05:58:12.784Z,1.80
2023-03-18T06:03:18.342Z,1.90
2023-03-18T06:08:22.448Z,1.87
2023-03-18T06:13:25.718Z,2.23
2023-03-18T06:18:30.441Z,2.30
2023-03-18T06:23:33.975Z,2.00
2023-03-18T06:28:37.246Z,2.37
2023-03-18T06:33:42.414Z,3.23
2023-03-18T06:38:46.113Z,3.13
2023-03-18T06:43:50.766Z,2.30
2023-03-18T06:48:55.856Z,4.00
2023-03-18T06:53:59.140Z,3.63
2023-03-18T06:59:02.772Z,3.47
2023-03-18T07:04:08.423Z,3.90
2023-03-18T07:09:12.748Z,3.80
2023-03-18T07:14:16.198Z,4.13
2023-03-18T07:19:20.933Z,3.87
2023-03-18T07:24:24.439Z,3.47
2023-03-18T07:29:27.784Z,4.40
2023-03-18T07:34:32.694Z,3.80
2023-03-18T07:39:37.566Z,3.80
2023-03-18T07:44:40.865Z,3.43
2023-03-18T07:49:46.223Z,3.40
2023-03-18T07:54:49.509Z,3.50
2023-03-18T07:59:52.865Z,3.43
2023-03-18T08:04:57.916Z,3.67
2023-03-18T08:10:01.841Z,3.00
2023-03-18T08:15:05.796Z,3.63
2023-03-18T08:20:12.403Z,3.80
2023-03-18T08:25:15.842Z,3.53
2023-03-18T08:30:19.469Z,3.30
2023-03-18T08:35:24.626Z,3.77
2023-03-18T08:40:28.377Z,4.10
2023-03-18T08:45:35.602Z,3.90
2023-03-18T08:50:40.474Z,3.90
2023-03-18T08:55:43.886Z,3.90
2023-03-18T09:00:47.259Z,3.73
2023-03-18T09:05:52.803Z,3.90
2023-03-18T09:10:56.594Z,4.63
2023-03-18T09:16:00.086Z,3.77
2023-03-18T09:21:05.617Z,3.50
2023-03-18T09:26:08.935Z,3.43
2023-03-18T09:31:13.147Z,3.60
2023-03-18T09:36:18.576Z,3.70
2023-03-18T09:41:36.351Z,3.80
2023-03-18T09:46:59.548Z,3.20
2023-03-18T09:52:15.585Z,3.50
2023-03-18T09:57:23.064Z,3.57
2023-03-18T10:02:33.591Z,3.33
2023-03-18T10:07:42.917Z,3.30
2023-03-18T10:12:49.867Z,3.20
2023-03-18T10:17:57.572Z,3.27
2023-03-18T10:23:12.172Z,3.70
2023-03-18T10:28:51.056Z,3.80
2023-03-18T10:33:59.467Z,3.53
2023-03-18T10:39:04.824Z,3.27
2023-03-18T10:44:18.789Z,3.70
2023-03-18T10:49:26.736Z,3.97
2023-03-18T10:54:38.455Z,3.80
2023-03-18T10:59:44.739Z,3.90
2023-03-18T11:04:50.991Z,3.30
2023-03-18T11:09:56.593Z,3.77
2023-03-18T11:14:59.861Z,3.17
2023-03-18T11:20:08.272Z,3.40
2023-03-18T11:25:17.268Z,3.20
2023-03-18T11:30:38.333Z,3.50
2023-03-18T11:35:45.344Z,2.60
2023-03-18T11:40:50.023Z,2.40
2023-03-18T11:45:57.334Z,2.50
2023-03-18T11:51:39.716Z,2.00
2023-03-18T11:56:49.825Z,2.20
2023-03-18T12:02:02.565Z,2.10
2023-03-18T12:07:19.044Z,1.90
2023-03-18T12:12:44.129Z,2.10
2023-03-18T12:17:55.185Z,1.30
2023-03-18T12:23:04.553Z,1.60
2023-03-18T12:28:20.181Z,1.50
2023-03-18T12:33:39.175Z,1.03
2023-03-18T12:39:06.493Z,1.73
2023-03-18T12:44:29.084Z,1.97
2023-03-18T12:49:36.322Z,1.80
2023-03-18T12:54:45.138Z,1.40
2023-03-18T12:59:58.447Z,1.87
2023-03-18T13:05:05.935Z,1.63
2023-03-18T13:10:19.877Z,1.67
2023-03-18T13:15:35.957Z,2.03
2023-03-18T13:20:41.043Z,1.43
2023-03-18T13:25:57.672Z,1.50
2023-03-18T13:31:12.171Z,1.60
2023-03-18T13:36:43.915Z,1.93
2023-03-18T13:42:06.739Z,1.57
2023-03-18T13:47:17.812Z,1.43
2023-03-18T13:52:29.384Z,1.70
2023-03-18T13:57:49.968Z,1.47
2023-03-18T14:03:07.877Z,1.20
2023-03-18T14:08:37.265Z,1.30
2023-03-18T14:13:40.727Z,1.47
2023-03-18T14:18:45.544Z,1.27
2023-03-18T14:24:07.614Z,1.40
2023-03-18T14:29:26.002Z,1.70
2023-03-18T14:34:34.119Z,1.23
2023-03-18T14:39:41.328Z,1.40
2023-03-18T14:44:48.846Z,1.10
2023-03-18T14:49:57.676Z,1.40
2023-03-18T14:55:07.752Z,1.20
2023-03-18T15:00:15.530Z,1.13
2023-03-18T15:05:22.937Z,1.30
2023-03-18T15:10:28.876Z,1.40
2023-03-18T15:15:32.731Z,1.53
2023-03-18T15:20:38.105Z,1.43
2023-03-18T15:25:44.872Z,1.50
2023-03-18T15:30:56.133Z,1.60
2023-03-18T15:36:06.987Z,1.20
2023-03-18T15:41:12.947Z,1.20
2023-03-18T15:46:19.355Z,1.43
2023-03-18T15:51:30.166Z,1.73
2023-03-18T15:56:36.230Z,1.53
2023-03-18T16:01:40.248Z,1.50
2023-03-18T16:06:45.620Z,1.60
2023-03-18T16:11:52.156Z,1.27
2023-03-18T16:16:56.087Z,1.20
2023-03-18T16:22:01.216Z,1.47
2023-03-18T16:27:06.206Z,1.63
2023-03-18T16:32:12.633Z,1.70
2023-03-18T16:37:22.817Z,1.63
2023-03-18T16:42:27.367Z,1.87
2023-03-18T16:47:30.804Z,1.67
2023-03-18T16:52:35.531Z,1.70
2023-03-18T16:57:39.482Z,2.00
2023-03-18T17:02:43.487Z,1.87
2023-03-18T17:07:49.354Z,2.37
2023-03-18T17:12:57.270Z,1.87
2023-03-18T17:18:00.549Z,1.93
2023-03-18T17:23:08.547Z,2.07
2023-03-18T17:28:16.984Z,1.93
2023-03-18T17:33:25.312Z,1.90
2023-03-18T17:38:31.473Z,1.60
2023-03-18T17:43:37.799Z,1.50
2023-03-18T17:48:42.597Z,1.57
2023-03-18T17:53:50.571Z,1.70
2023-03-18T17:58:56.686Z,1.87
2023-03-18T18:04:01.869Z,1.70
2023-03-18T18:09:07.850Z,1.67
2023-03-18T18:14:19.393Z,1.80
2023-03-18T18:19:23.411Z,1.83
2023-03-18T18:24:31.695Z,1.80
2023-03-18T18:29:36.654Z,1.70
2023-03-18T18:34:40.843Z,2.00
2023-03-18T18:39:46.557Z,2.00
2023-03-18T18:44:56.244Z,2.30
2023-03-18T18:50:01.682Z,2.63
2023-03-18T18:55:10.033Z,2.60
2023-03-18T19:00:21.477Z,2.27
2023-03-18T19:05:26.122Z,1.97
2023-03-18T19:10:33.528Z,2.70
2023-03-18T19:15:38.374Z,2.30
2023-03-18T19:20:43.632Z,2.40
2023-03-18T19:25:55.588Z,2.10
2023-03-18T19:31:02.259Z,2.03
2023-03-18T19:36:10.118Z,2.40
2023-03-18T19:41:16.395Z,2.30
2023-03-18T19:46:30.389Z,3.27
2023-03-18T19:51:40.456Z,2.50
2023-03-18T19:56:47.650Z,1.70
2023-03-18T20:01:52.956Z,2.23
2023-03-18T20:06:59.002Z,2.20
2023-03-18T20:12:06.459Z,2.40
2023-03-18T20:17:32.334Z,2.07
2023-03-18T20:22:40.728Z,2.27
2023-03-18T20:27:47.521Z,2.00
2023-03-18T20:32:53.047Z,2.47
2023-03-18T20:38:00.225Z,3.37
2023-03-18T20:43:06.235Z,2.83
2023-03-18T20:48:10.936Z,1.70
2023-03-18T20:53:19.569Z,2.03
2023-03-18T20:58:26.975Z,1.70
2023-03-18T21:03:34.235Z,2.10
2023-03-18T21:08:38.622Z,1.80
2023-03-18T21:13:48.148Z,1.70
2023-03-18T21:18:52.999Z,1.80
2023-03-18T21:23:57.581Z,1.50
2023-03-18T21:29:03.797Z,1.80
2023-03-18T21:34:08.434Z,1.73
2023-03-18T21:39:12.312Z,1.80
2023-03-18T21:44:17.086Z,1.90
2023-03-18T21:49:21.082Z,2.30
2023-03-18T21:54:25.943Z,1.67
2023-03-18T21:59:31.820Z,1.43
2023-03-18T22:04:35.251Z,1.40
2023-03-18T22:09:38.566Z,1.50
2023-03-18T22:14:43.348Z,2.10
2023-03-18T22:19:46.778Z,1.80
2023-03-18T22:24:51.239Z,2.10
2023-03-18T22:29:57.441Z,2.30
2023-03-18T22:35:00.786Z,2.10
2023-03-18T22:40:04.503Z,2.00
2023-03-18T22:45:19.902Z,1.90
2023-03-18T22:50:25.418Z,1.50
2023-03-18T22:55:33.379Z,1.30
2023-03-18T23:00:40.180Z,1.57
2023-03-18T23:05:43.586Z,2.33
2023-03-18T23:10:48.263Z,1.70
2023-03-18T23:15:53.177Z,1.80
2023-03-18T23:20:56.512Z,1.73
2023-03-18T23:25:59.880Z,1.90
2023-03-18T23:36:37.648Z,2.20
2023-03-18T23:41:41.133Z,2.10
2023-03-18T23:46:46.575Z,2.27
2023-03-18T23:51:49.939Z,1.87
2023-03-18T23:56:53.300Z,1.77
